sensor_id;sensor_type;location;lat;lon;timestamp;P1;durP1;ratioP1;P2;durP2;ratioP2
5965;SDS011;3009;43.224;27.976;2024-02-28T00:02:24;20.27;;;6.77;;
5965;SDS011;3009;43.224;27.976;2024-02-28T00:04:53;14.20;;;6.23;;
5965;SDS011;3009;43.224;27.976;2024-02-28T00:07:21;27.00;;;8.10;;
5965;SDS011;3009;43.224;27.976;2024-02-28T00:09:50;14.17;;;7.00;;
5965;SDS011;3009;43.224;27.976;2024-02-28T00:12:20;14.03;;;6.20;;
5965;SDS011;3009;43.224;27.976;2024-02-28T00:14:48;12.40;;;5.70;;
5965;SDS011;3009;43.224;27.976;2024-02-28T00:17:17;19.13;;;6.70;;
5965;SDS011;3009;43.224;27.976;2024-02-28T00:19:45;9.53;;;6.53;;
5965;SDS011;3009;43.224;27.976;2024-02-28T00:22:13;23.93;;;6.93;;
5965;SDS011;3009;43.224;27.976;2024-02-28T00:24:42;7.23;;;6.00;;
5965;SDS011;3009;43.224;27.976;2024-02-28T00:27:10;8.93;;;6.10;;
5965;SDS011;3009;43.224;27.976;2024-02-28T00:29:40;21.83;;;6.83;;
5965;SDS011;3009;43.224;27.976;2024-02-28T00:32:08;12.70;;;5.90;;
5965;SDS011;3009;43.224;27.976;2024-02-28T00:34:37;12.60;;;6.60;;
5965;SDS011;3009;43.224;27.976;2024-02-28T00:37:05;14.80;;;6.57;;
5965;SDS011;3009;43.224;27.976;2024-02-28T00:39:34;21.00;;;11.43;;
5965;SDS011;3009;43.224;27.976;2024-02-28T00:42:02;12.93;;;5.77;;
5965;SDS011;3009;43.224;27.976;2024-02-28T00:44:31;7.67;;;5.50;;
5965;SDS011;3009;43.224;27.976;2024-02-28T00:47:00;9.83;;;5.17;;
5965;SDS011;3009;43.224;27.976;2024-02-28T00:49:29;10.80;;;5.13;;
5965;SDS011;3009;43.224;27.976;2024-02-28T00:51:57;14.00;;;6.47;;
5965;SDS011;3009;43.224;27.976;2024-02-28T00:54:26;9.03;;;5.27;;
5965;SDS011;3009;43.224;27.976;2024-02-28T00:56:54;11.80;;;6.40;;
5965;SDS011;3009;43.224;27.976;2024-02-28T00:59:22;10.33;;;5.27;;
5965;SDS011;3009;43.224;27.976;2024-02-28T01:01:51;12.23;;;5.90;;
5965;SDS011;3009;43.224;27.976;2024-02-28T01:04:21;11.23;;;6.33;;
5965;SDS011;3009;43.224;27.976;2024-02-28T01:06:49;13.83;;;5.70;;
5965;SDS011;3009;43.224;27.976;2024-02-28T01:09:18;13.00;;;5.70;;
5965;SDS011;3009;43.224;27.976;2024-02-28T01:11:46;10.53;;;6.30;;
5965;SDS011;3009;43.224;27.976;2024-02-28T01:14:15;15.93;;;7.87;;
5965;SDS011;3009;43.224;27.976;2024-02-28T01:16:43;12.47;;;6.40;;
5965;SDS011;3009;43.224;27.976;2024-02-28T01:19:12;13.00;;;6.27;;
5965;SDS011;3009;43.224;27.976;2024-02-28T01:21:41;10.50;;;5.60;;
5965;SDS011;3009;43.224;27.976;2024-02-28T01:24:10;6.50;;;5.87;;
5965;SDS011;3009;43.224;27.976;2024-02-28T01:26:39;13.60;;;5.70;;
5965;SDS011;3009;43.224;27.976;2024-02-28T01:29:07;8.43;;;5.00;;
5965;SDS011;3009;43.224;27.976;2024-02-28T01:31:36;14.53;;;5.20;;
5965;SDS011;3009;43.224;27.976;2024-02-28T01:34:04;10.87;;;5.07;;
5965;SDS011;3009;43.224;27.976;2024-02-28T01:36:33;13.20;;;6.20;;
5965;SDS011;3009;43.224;27.976;2024-02-28T01:39:03;14.90;;;6.30;;
5965;SDS011;3009;43.224;27.976;2024-02-28T01:41:31;11.40;;;6.10;;
5965;SDS011;3009;43.224;27.976;2024-02-28T01:43:59;10.37;;;6.03;;
5965;SDS011;3009;43.224;27.976;2024-02-28T01:46:28;14.97;;;6.70;;
5965;SDS011;3009;43.224;27.976;2024-02-28T01:48:58;15.70;;;6.40;;
5965;SDS011;3009;43.224;27.976;2024-02-28T01:51:27;13.83;;;6.20;;
5965;SDS011;3009;43.224;27.976;2024-02-28T01:53:55;5.30;;;4.80;;
5965;SDS011;3009;43.224;27.976;2024-02-28T01:56:27;9.03;;;5.70;;
5965;SDS011;3009;43.224;27.976;2024-02-28T01:58:55;16.50;;;7.33;;
5965;SDS011;3009;43.224;27.976;2024-02-28T02:01:25;14.67;;;5.70;;
5965;SDS011;3009;43.224;27.976;2024-02-28T02:03:54;7.40;;;5.30;;
5965;SDS011;3009;43.224;27.976;2024-02-28T02:06:23;11.33;;;7.20;;
5965;SDS011;3009;43.224;27.976;2024-02-28T02:08:51;10.07;;;5.50;;
5965;SDS011;3009;43.224;27.976;2024-02-28T02:11:21;13.17;;;5.63;;
5965;SDS011;3009;43.224;27.976;2024-02-28T02:13:54;9.53;;;4.87;;
5965;SDS011;3009;43.224;27.976;2024-02-28T02:16:23;11.67;;;5.37;;
5965;SDS011;3009;43.224;27.976;2024-02-28T02:18:53;12.13;;;5.87;;
5965;SDS011;3009;43.224;27.976;2024-02-28T02:21:22;15.70;;;6.50;;
5965;SDS011;3009;43.224;27.976;2024-02-28T02:23:55;13.00;;;6.13;;
5965;SDS011;3009;43.224;27.976;2024-02-28T02:26:24;16.27;;;6.50;;
5965;SDS011;3009;43.224;27.976;2024-02-28T02:28:52;16.53;;;5.93;;
5965;SDS011;3009;43.224;27.976;2024-02-28T02:31:21;16.67;;;6.03;;
5965;SDS011;3009;43.224;27.976;2024-02-28T02:33:49;9.67;;;5.60;;
5965;SDS011;3009;43.224;27.976;2024-02-28T02:36:17;8.53;;;5.60;;
5965;SDS011;3009;43.224;27.976;2024-02-28T02:38:46;13.33;;;6.20;;
5965;SDS011;3009;43.224;27.976;2024-02-28T02:41:16;16.90;;;7.50;;
5965;SDS011;3009;43.224;27.976;2024-02-28T02:43:44;13.23;;;7.20;;
5965;SDS011;3009;43.224;27.976;2024-02-28T02:46:12;12.37;;;6.20;;
5965;SDS011;3009;43.224;27.976;2024-02-28T02:48:41;17.70;;;6.47;;
5965;SDS011;3009;43.224;27.976;2024-02-28T02:51:09;13.00;;;5.87;;
5965;SDS011;3009;43.224;27.976;2024-02-28T02:53:38;15.53;;;6.23;;
5965;SDS011;3009;43.224;27.976;2024-02-28T02:56:06;13.73;;;6.10;;
5965;SDS011;3009;43.224;27.976;2024-02-28T02:58:36;16.67;;;8.13;;
5965;SDS011;3009;43.224;27.976;2024-02-28T03:01:04;21.90;;;6.73;;
5965;SDS011;3009;43.224;27.976;2024-02-28T03:03:33;12.60;;;6.23;;
5965;SDS011;3009;43.224;27.976;2024-02-28T03:06:04;13.10;;;7.10;;
5965;SDS011;3009;43.224;27.976;2024-02-28T03:08:33;20.47;;;7.53;;
5965;SDS011;3009;43.224;27.976;2024-02-28T03:11:01;12.93;;;6.93;;
5965;SDS011;3009;43.224;27.976;2024-02-28T03:13:31;15.37;;;7.50;;
5965;SDS011;3009;43.224;27.976;2024-02-28T03:16:01;23.67;;;9.23;;
5965;SDS011;3009;43.224;27.976;2024-02-28T03:18:31;18.20;;;8.30;;
5965;SDS011;3009;43.224;27.976;2024-02-28T03:20:59;15.00;;;6.70;;
5965;SDS011;3009;43.224;27.976;2024-02-28T03:23:30;18.30;;;8.13;;
5965;SDS011;3009;43.224;27.976;2024-02-28T03:25:59;7.97;;;6.33;;
5965;SDS011;3009;43.224;27.976;2024-02-28T03:28:27;12.90;;;7.93;;
5965;SDS011;3009;43.224;27.976;2024-02-28T03:30:56;16.97;;;8.60;;
5965;SDS011;3009;43.224;27.976;2024-02-28T03:33:26;14.50;;;7.33;;
5965;SDS011;3009;43.224;27.976;2024-02-28T03:35:54;13.53;;;9.03;;
5965;SDS011;3009;43.224;27.976;2024-02-28T03:38:23;22.83;;;8.90;;
5965;SDS011;3009;43.224;27.976;2024-02-28T03:40:51;15.63;;;7.60;;
5965;SDS011;3009;43.224;27.976;2024-02-28T03:43:19;14.33;;;7.90;;
5965;SDS011;3009;43.224;27.976;2024-02-28T03:45:49;18.00;;;7.47;;
5965;SDS011;3009;43.224;27.976;2024-02-28T03:48:18;15.47;;;8.10;;
5965;SDS011;3009;43.224;27.976;2024-02-28T03:50:48;12.73;;;8.30;;
5965;SDS011;3009;43.224;27.976;2024-02-28T03:53:17;14.47;;;8.27;;
5965;SDS011;3009;43.224;27.976;2024-02-28T03:55:45;24.40;;;8.47;;
5965;SDS011;3009;43.224;27.976;2024-02-28T03:58:15;12.40;;;7.10;;
5965;SDS011;3009;43.224;27.976;2024-02-28T04:00:43;14.03;;;7.83;;
5965;SDS011;3009;43.224;27.976;2024-02-28T04:03:13;28.63;;;10.17;;
5965;SDS011;3009;43.224;27.976;2024-02-28T04:05:41;11.90;;;7.70;;
5965;SDS011;3009;43.224;27.976;2024-02-28T04:08:11;17.10;;;7.67;;
5965;SDS011;3009;43.224;27.976;2024-02-28T04:10:40;11.67;;;7.63;;
5965;SDS011;3009;43.224;27.976;2024-02-28T04:13:08;15.70;;;8.83;;
5965;SDS011;3009;43.224;27.976;2024-02-28T04:15:36;14.63;;;8.93;;
5965;SDS011;3009;43.224;27.976;2024-02-28T04:18:05;12.67;;;8.13;;
5965;SDS011;3009;43.224;27.976;2024-02-28T04:20:33;14.93;;;8.27;;
5965;SDS011;3009;43.224;27.976;2024-02-28T04:23:02;16.67;;;8.30;;
5965;SDS011;3009;43.224;27.976;2024-02-28T04:25:32;17.37;;;8.27;;
5965;SDS011;3009;43.224;27.976;2024-02-28T04:28:00;14.43;;;8.73;;
5965;SDS011;3009;43.224;27.976;2024-02-28T04:30:29;16.53;;;9.27;;
5965;SDS011;3009;43.224;27.976;2024-02-28T04:32:58;16.87;;;8.80;;
5965;SDS011;3009;43.224;27.976;2024-02-28T04:35:26;11.50;;;8.00;;
5965;SDS011;3009;43.224;27.976;2024-02-28T04:37:55;17.43;;;8.40;;
5965;SDS011;3009;43.224;27.976;2024-02-28T04:40:23;23.63;;;9.03;;
5965;SDS011;3009;43.224;27.976;2024-02-28T04:42:53;24.60;;;9.10;;
5965;SDS011;3009;43.224;27.976;2024-02-28T04:45:21;17.50;;;8.47;;
5965;SDS011;3009;43.224;27.976;2024-02-28T04:47:50;16.53;;;8.80;;
5965;SDS011;3009;43.224;27.976;2024-02-28T04:50:19;16.70;;;9.60;;
5965;SDS011;3009;43.224;27.976;2024-02-28T04:52:47;18.20;;;8.90;;
5965;SDS011;3009;43.224;27.976;2024-02-28T04:55:16;19.20;;;8.80;;
5965;SDS011;3009;43.224;27.976;2024-02-28T04:57:44;25.87;;;9.93;;
5965;SDS011;3009;43.224;27.976;2024-02-28T05:00:15;17.77;;;9.00;;
5965;SDS011;3009;43.224;27.976;2024-02-28T05:02:44;16.57;;;9.07;;
5965;SDS011;3009;43.224;27.976;2024-02-28T05:05:13;19.50;;;9.93;;
5965;SDS011;3009;43.224;27.976;2024-02-28T05:07:41;21.83;;;10.60;;
5965;SDS011;3009;43.224;27.976;2024-02-28T05:10:17;17.20;;;8.37;;
5965;SDS011;3009;43.224;27.976;2024-02-28T05:12:45;15.60;;;8.27;;
5965;SDS011;3009;43.224;27.976;2024-02-28T05:15:15;21.00;;;7.43;;
5965;SDS011;3009;43.224;27.976;2024-02-28T05:17:57;14.90;;;7.20;;
5965;SDS011;3009;43.224;27.976;2024-02-28T05:20:26;24.77;;;8.90;;
5965;SDS011;3009;43.224;27.976;2024-02-28T05:22:54;9.50;;;7.40;;
5965;SDS011;3009;43.224;27.976;2024-02-28T05:25:23;11.70;;;7.50;;
5965;SDS011;3009;43.224;27.976;2024-02-28T05:27:51;19.07;;;8.43;;
5965;SDS011;3009;43.224;27.976;2024-02-28T05:30:21;13.10;;;7.90;;
5965;SDS011;3009;43.224;27.976;2024-02-28T05:32:49;10.57;;;6.97;;
5965;SDS011;3009;43.224;27.976;2024-02-28T05:37:44;20.23;;;7.87;;
5965;SDS011;3009;43.224;27.976;2024-02-28T05:40:13;10.60;;;7.13;;
5965;SDS011;3009;43.224;27.976;2024-02-28T05:42:41;11.90;;;6.50;;
5965;SDS011;3009;43.224;27.976;2024-02-28T05:45:10;20.60;;;6.60;;
5965;SDS011;3009;43.224;27.976;2024-02-28T05:47:40;12.97;;;6.43;;
5965;SDS011;3009;43.224;27.976;2024-02-28T05:50:09;7.67;;;5.80;;
5965;SDS011;3009;43.224;27.976;2024-02-28T05:52:41;13.50;;;6.10;;
5965;SDS011;3009;43.224;27.976;2024-02-28T05:55:10;15.83;;;6.83;;
5965;SDS011;3009;43.224;27.976;2024-02-28T05:57:39;16.13;;;6.50;;
5965;SDS011;3009;43.224;27.976;2024-02-28T06:00:07;11.43;;;6.50;;
5965;SDS011;3009;43.224;27.976;2024-02-28T06:02:37;16.33;;;6.67;;
5965;SDS011;3009;43.224;27.976;2024-02-28T06:05:07;13.57;;;5.57;;
5965;SDS011;3009;43.224;27.976;2024-02-28T06:07:36;9.00;;;6.60;;
5965;SDS011;3009;43.224;27.976;2024-02-28T06:10:05;13.47;;;5.37;;
5965;SDS011;3009;43.224;27.976;2024-02-28T06:12:34;11.00;;;5.17;;
5965;SDS011;3009;43.224;27.976;2024-02-28T06:15:04;11.37;;;5.20;;
5965;SDS011;3009;43.224;27.976;2024-02-28T06:17:33;11.67;;;5.17;;
5965;SDS011;3009;43.224;27.976;2024-02-28T06:20:01;12.53;;;4.70;;
5965;SDS011;3009;43.224;27.976;2024-02-28T06:22:32;16.77;;;5.20;;
5965;SDS011;3009;43.224;27.976;2024-02-28T06:25:01;21.60;;;5.50;;
5965;SDS011;3009;43.224;27.976;2024-02-28T06:27:29;13.97;;;6.30;;
5965;SDS011;3009;43.224;27.976;2024-02-28T06:29:58;20.00;;;5.70;;
5965;SDS011;3009;43.224;27.976;2024-02-28T06:32:27;19.83;;;5.60;;
5965;SDS011;3009;43.224;27.976;2024-02-28T06:34:55;15.17;;;4.80;;
5965;SDS011;3009;43.224;27.976;2024-02-28T06:37:24;6.87;;;4.20;;
5965;SDS011;3009;43.224;27.976;2024-02-28T06:39:54;7.50;;;4.20;;
5965;SDS011;3009;43.224;27.976;2024-02-28T06:42:22;11.70;;;4.40;;
5965;SDS011;3009;43.224;27.976;2024-02-28T06:44:51;12.20;;;4.60;;
5965;SDS011;3009;43.224;27.976;2024-02-28T06:47:19;12.30;;;3.53;;
5965;SDS011;3009;43.224;27.976;2024-02-28T06:49:48;11.87;;;4.90;;
5965;SDS011;3009;43.224;27.976;2024-02-28T06:52:16;18.87;;;4.27;;
5965;SDS011;3009;43.224;27.976;2024-02-28T06:54:44;6.50;;;3.60;;
5965;SDS011;3009;43.224;27.976;2024-02-28T06:57:14;11.73;;;3.87;;
5965;SDS011;3009;43.224;27.976;2024-02-28T06:59:43;17.30;;;3.77;;
5965;SDS011;3009;43.224;27.976;2024-02-28T07:02:11;8.70;;;4.57;;
5965;SDS011;3009;43.224;27.976;2024-02-28T07:04:40;8.80;;;4.13;;
5965;SDS011;3009;43.224;27.976;2024-02-28T07:07:15;8.70;;;4.80;;
5965;SDS011;3009;43.224;27.976;2024-02-28T07:09:43;15.53;;;4.33;;
5965;SDS011;3009;43.224;27.976;2024-02-28T07:12:11;13.87;;;4.20;;
5965;SDS011;3009;43.224;27.976;2024-02-28T07:14:41;9.97;;;4.43;;
5965;SDS011;3009;43.224;27.976;2024-02-28T07:17:10;7.57;;;4.10;;
5965;SDS011;3009;43.224;27.976;2024-02-28T07:19:38;8.47;;;3.70;;
5965;SDS011;3009;43.224;27.976;2024-02-28T07:22:06;8.87;;;4.07;;
5965;SDS011;3009;43.224;27.976;2024-02-28T07:24:35;9.90;;;4.67;;
5965;SDS011;3009;43.224;27.976;2024-02-28T07:27:03;12.37;;;6.03;;
5965;SDS011;3009;43.224;27.976;2024-02-28T07:29:32;10.30;;;4.83;;
5965;SDS011;3009;43.224;27.976;2024-02-28T07:32:02;15.20;;;4.17;;
5965;SDS011;3009;43.224;27.976;2024-02-28T07:34:31;18.00;;;4.37;;
5965;SDS011;3009;43.224;27.976;2024-02-28T07:37:00;12.93;;;4.60;;
5965;SDS011;3009;43.224;27.976;2024-02-28T07:39:29;9.77;;;3.87;;
5965;SDS011;3009;43.224;27.976;2024-02-28T07:41:57;10.03;;;4.20;;
5965;SDS011;3009;43.224;27.976;2024-02-28T07:44:26;16.03;;;4.30;;
5965;SDS011;3009;43.224;27.976;2024-02-28T07:46:57;14.90;;;4.20;;
5965;SDS011;3009;43.224;27.976;2024-02-28T07:49:27;14.87;;;5.33;;
5965;SDS011;3009;43.224;27.976;2024-02-28T07:51:55;16.00;;;5.80;;
5965;SDS011;3009;43.224;27.976;2024-02-28T07:54:24;7.33;;;4.20;;
5965;SDS011;3009;43.224;27.976;2024-02-28T07:56:53;12.10;;;3.60;;
5965;SDS011;3009;43.224;27.976;2024-02-28T07:59:21;6.00;;;3.23;;
5965;SDS011;3009;43.224;27.976;2024-02-28T08:01:49;11.17;;;4.00;;
5965;SDS011;3009;43.224;27.976;2024-02-28T08:04:19;14.17;;;4.10;;
5965;SDS011;3009;43.224;27.976;2024-02-28T08:06:48;9.40;;;4.20;;
5965;SDS011;3009;43.224;27.976;2024-02-28T08:09:17;4.47;;;3.30;;
5965;SDS011;3009;43.224;27.976;2024-02-28T08:11:46;10.43;;;3.97;;
5965;SDS011;3009;43.224;27.976;2024-02-28T08:14:14;4.87;;;3.30;;
5965;SDS011;3009;43.224;27.976;2024-02-28T08:16:43;4.77;;;3.10;;
5965;SDS011;3009;43.224;27.976;2024-02-28T08:19:11;15.97;;;4.30;;
5965;SDS011;3009;43.224;27.976;2024-02-28T08:21:40;6.80;;;3.67;;
5965;SDS011;3009;43.224;27.976;2024-02-28T08:24:10;8.20;;;3.57;;
5965;SDS011;3009;43.224;27.976;2024-02-28T08:26:39;16.10;;;4.47;;
5965;SDS011;3009;43.224;27.976;2024-02-28T08:29:08;5.40;;;3.20;;
5965;SDS011;3009;43.224;27.976;2024-02-28T08:31:40;16.30;;;3.70;;
5965;SDS011;3009;43.224;27.976;2024-02-28T08:34:09;14.67;;;5.67;;
5965;SDS011;3009;43.224;27.976;2024-02-28T08:36:38;11.73;;;5.50;;
5965;SDS011;3009;43.224;27.976;2024-02-28T08:39:06;10.70;;;4.07;;
5965;SDS011;3009;43.224;27.976;2024-02-28T08:41:37;8.93;;;4.60;;
5965;SDS011;3009;43.224;27.976;2024-02-28T08:44:06;24.73;;;4.87;;
5965;SDS011;3009;43.224;27.976;2024-02-28T08:46:34;15.73;;;5.53;;
5965;SDS011;3009;43.224;27.976;2024-02-28T08:49:03;11.30;;;4.57;;
5965;SDS011;3009;43.224;27.976;2024-02-28T08:51:31;15.03;;;4.43;;
5965;SDS011;3009;43.224;27.976;2024-02-28T08:54:00;6.00;;;4.70;;
5965;SDS011;3009;43.224;27.976;2024-02-28T08:56:28;10.90;;;4.03;;
5965;SDS011;3009;43.224;27.976;2024-02-28T08:58:59;9.73;;;4.00;;
5965;SDS011;3009;43.224;27.976;2024-02-28T09:01:27;13.10;;;3.80;;
5965;SDS011;3009;43.224;27.976;2024-02-28T09:03:56;6.70;;;3.60;;
5965;SDS011;3009;43.224;27.976;2024-02-28T09:06:24;7.73;;;3.63;;
5965;SDS011;3009;43.224;27.976;2024-02-28T09:08:53;8.13;;;4.27;;
5965;SDS011;3009;43.224;27.976;2024-02-28T09:11:22;9.20;;;4.27;;
5965;SDS011;3009;43.224;27.976;2024-02-28T09:13:51;18.00;;;4.87;;
5965;SDS011;3009;43.224;27.976;2024-02-28T09:16:21;24.50;;;4.90;;
5965;SDS011;3009;43.224;27.976;2024-02-28T09:18:50;12.20;;;3.73;;
5965;SDS011;3009;43.224;27.976;2024-02-28T09:21:18;13.27;;;3.93;;
5965;SDS011;3009;43.224;27.976;2024-02-28T09:23:47;7.53;;;3.63;;
5965;SDS011;3009;43.224;27.976;2024-02-28T09:26:15;19.10;;;5.43;;
5965;SDS011;3009;43.224;27.976;2024-02-28T09:28:44;9.90;;;4.40;;
5965;SDS011;3009;43.224;27.976;2024-02-28T09:31:12;13.03;;;6.93;;
5965;SDS011;3009;43.224;27.976;2024-02-28T09:33:43;10.43;;;4.67;;
5965;SDS011;3009;43.224;27.976;2024-02-28T09:36:13;7.30;;;4.00;;
5965;SDS011;3009;43.224;27.976;2024-02-28T09:38:41;14.33;;;4.33;;
5965;SDS011;3009;43.224;27.976;2024-02-28T09:41:14;8.23;;;3.97;;
5965;SDS011;3009;43.224;27.976;2024-02-28T09:43:43;10.10;;;3.97;;
5965;SDS011;3009;43.224;27.976;2024-02-28T09:46:13;12.93;;;4.40;;
5965;SDS011;3009;43.224;27.976;2024-02-28T09:48:44;9.50;;;4.50;;
5965;SDS011;3009;43.224;27.976;2024-02-28T09:51:17;11.70;;;4.33;;
5965;SDS011;3009;43.224;27.976;2024-02-28T09:53:50;11.50;;;5.00;;
5965;SDS011;3009;43.224;27.976;2024-02-28T09:56:19;16.13;;;4.30;;
5965;SDS011;3009;43.224;27.976;2024-02-28T09:58:49;15.37;;;4.80;;
5965;SDS011;3009;43.224;27.976;2024-02-28T10:01:18;11.23;;;4.70;;
5965;SDS011;3009;43.224;27.976;2024-02-28T10:03:51;12.60;;;5.50;;
5965;SDS011;3009;43.224;27.976;2024-02-28T10:06:21;11.70;;;4.37;;
5965;SDS011;3009;43.224;27.976;2024-02-28T10:08:50;14.40;;;4.80;;
5965;SDS011;3009;43.224;27.976;2024-02-28T10:11:19;16.00;;;5.67;;
5965;SDS011;3009;43.224;27.976;2024-02-28T10:13:49;10.40;;;5.03;;
5965;SDS011;3009;43.224;27.976;2024-02-28T10:16:22;16.20;;;4.40;;
5965;SDS011;3009;43.224;27.976;2024-02-28T10:18:52;4.47;;;4.07;;
5965;SDS011;3009;43.224;27.976;2024-02-28T10:21:21;10.20;;;4.80;;
5965;SDS011;3009;43.224;27.976;2024-02-28T10:23:50;8.53;;;4.33;;
5965;SDS011;3009;43.224;27.976;2024-02-28T10:26:19;11.10;;;4.30;;
5965;SDS011;3009;43.224;27.976;2024-02-28T10:28:47;16.80;;;4.60;;
5965;SDS011;3009;43.224;27.976;2024-02-28T10:31:16;24.93;;;5.33;;
5965;SDS011;3009;43.224;27.976;2024-02-28T10:33:44;11.77;;;4.17;;
5965;SDS011;3009;43.224;27.976;2024-02-28T10:36:14;11.93;;;4.60;;
5965;SDS011;3009;43.224;27.976;2024-02-28T10:38:42;7.27;;;4.17;;
5965;SDS011;3009;43.224;27.976;2024-02-28T10:41:11;14.20;;;5.27;;
5965;SDS011;3009;43.224;27.976;2024-02-28T10:43:42;14.97;;;5.10;;
5965;SDS011;3009;43.224;27.976;2024-02-28T10:46:12;14.50;;;4.90;;
5965;SDS011;3009;43.224;27.976;2024-02-28T10:49:02;12.03;;;4.90;;
5965;SDS011;3009;43.224;27.976;2024-02-28T10:51:33;12.90;;;5.03;;
5965;SDS011;3009;43.224;27.976;2024-02-28T10:54:07;7.37;;;4.40;;
5965;SDS011;3009;43.224;27.976;2024-02-28T10:56:39;7.73;;;4.37;;
5965;SDS011;3009;43.224;27.976;2024-02-28T10:59:09;13.30;;;5.13;;
5965;SDS011;3009;43.224;27.976;2024-02-28T11:01:38;11.83;;;4.43;;
5965;SDS011;3009;43.224;27.976;2024-02-28T11:04:10;19.83;;;5.20;;
5965;SDS011;3009;43.224;27.976;2024-02-28T11:06:51;11.40;;;6.00;;
5965;SDS011;3009;43.224;27.976;2024-02-28T11:09:23;15.83;;;4.60;;
5965;SDS011;3009;43.224;27.976;2024-02-28T11:11:53;12.13;;;4.70;;
5965;SDS011;3009;43.224;27.976;2024-02-28T11:14:23;12.20;;;4.90;;
5965;SDS011;3009;43.224;27.976;2024-02-28T11:17:00;9.33;;;4.83;;
5965;SDS011;3009;43.224;27.976;2024-02-28T11:19:30;14.17;;;4.90;;
5965;SDS011;3009;43.224;27.976;2024-02-28T11:22:01;9.93;;;4.47;;
5965;SDS011;3009;43.224;27.976;2024-02-28T11:24:31;19.20;;;4.90;;
5965;SDS011;3009;43.224;27.976;2024-02-28T11:27:01;14.03;;;4.93;;
5965;SDS011;3009;43.224;27.976;2024-02-28T11:29:30;8.30;;;4.90;;
5965;SDS011;3009;43.224;27.976;2024-02-28T11:31:59;24.17;;;5.17;;
5965;SDS011;3009;43.224;27.976;2024-02-28T11:34:27;17.30;;;5.50;;
5965;SDS011;3009;43.224;27.976;2024-02-28T11:36:56;12.90;;;6.27;;
5965;SDS011;3009;43.224;27.976;2024-02-28T11:39:27;14.27;;;5.43;;
5965;SDS011;3009;43.224;27.976;2024-02-28T11:42:07;16.33;;;5.00;;
5965;SDS011;3009;43.224;27.976;2024-02-28T11:44:41;20.47;;;6.47;;
5965;SDS011;3009;43.224;27.976;2024-02-28T11:47:10;51.73;;;23.47;;
5965;SDS011;3009;43.224;27.976;2024-02-28T11:49:39;13.77;;;6.30;;
5965;SDS011;3009;43.224;27.976;2024-02-28T11:52:08;23.43;;;5.33;;
5965;SDS011;3009;43.224;27.976;2024-02-28T11:54:39;16.00;;;5.50;;
5965;SDS011;3009;43.224;27.976;2024-02-28T11:57:07;14.20;;;6.47;;
5965;SDS011;3009;43.224;27.976;2024-02-28T11:59:40;13.30;;;6.43;;
5965;SDS011;3009;43.224;27.976;2024-02-28T12:02:12;18.87;;;5.83;;
5965;SDS011;3009;43.224;27.976;2024-02-28T12:04:42;16.37;;;5.27;;
5965;SDS011;3009;43.224;27.976;2024-02-28T12:07:11;14.43;;;4.90;;
5965;SDS011;3009;43.224;27.976;2024-02-28T12:09:41;17.77;;;6.50;;
5965;SDS011;3009;43.224;27.976;2024-02-28T12:12:11;15.30;;;5.33;;
5965;SDS011;3009;43.224;27.976;2024-02-28T12:14:41;10.17;;;5.20;;
5965;SDS011;3009;43.224;27.976;2024-02-28T12:17:10;14.10;;;4.93;;
5965;SDS011;3009;43.224;27.976;2024-02-28T12:19:38;25.33;;;5.77;;
5965;SDS011;3009;43.224;27.976;2024-02-28T12:22:07;16.70;;;5.53;;
5965;SDS011;3009;43.224;27.976;2024-02-28T12:24:36;15.40;;;6.50;;
5965;SDS011;3009;43.224;27.976;2024-02-28T12:27:06;12.40;;;5.10;;
5965;SDS011;3009;43.224;27.976;2024-02-28T12:29:34;11.10;;;6.00;;
5965;SDS011;3009;43.224;27.976;2024-02-28T12:32:02;14.20;;;6.30;;
5965;SDS011;3009;43.224;27.976;2024-02-28T12:34:31;22.17;;;6.83;;
5965;SDS011;3009;43.224;27.976;2024-02-28T12:37:00;17.80;;;6.70;;
5965;SDS011;3009;43.224;27.976;2024-02-28T12:39:29;7.23;;;4.73;;
5965;SDS011;3009;43.224;27.976;2024-02-28T12:42:01;9.47;;;4.97;;
5965;SDS011;3009;43.224;27.976;2024-02-28T12:44:31;15.37;;;6.97;;
5965;SDS011;3009;43.224;27.976;2024-02-28T12:46:59;11.27;;;5.00;;
5965;SDS011;3009;43.224;27.976;2024-02-28T12:49:27;12.20;;;5.50;;
5965;SDS011;3009;43.224;27.976;2024-02-28T12:51:56;21.23;;;5.83;;
5965;SDS011;3009;43.224;27.976;2024-02-28T12:54:24;15.70;;;6.20;;
5965;SDS011;3009;43.224;27.976;2024-02-28T12:56:53;16.30;;;6.47;;
5965;SDS011;3009;43.224;27.976;2024-02-28T12:59:21;17.40;;;6.33;;
5965;SDS011;3009;43.224;27.976;2024-02-28T13:01:51;10.60;;;5.77;;
5965;SDS011;3009;43.224;27.976;2024-02-28T13:04:20;17.57;;;5.70;;
5965;SDS011;3009;43.224;27.976;2024-02-28T13:06:49;14.47;;;5.20;;
5965;SDS011;3009;43.224;27.976;2024-02-28T13:09:18;14.90;;;7.23;;
5965;SDS011;3009;43.224;27.976;2024-02-28T13:11:49;14.60;;;6.37;;
5965;SDS011;3009;43.224;27.976;2024-02-28T13:14:17;11.77;;;5.97;;
5965;SDS011;3009;43.224;27.976;2024-02-28T13:16:46;16.40;;;6.53;;
5965;SDS011;3009;43.224;27.976;2024-02-28T13:19:16;20.60;;;6.37;;
5965;SDS011;3009;43.224;27.976;2024-02-28T13:21:45;18.20;;;6.70;;
5965;SDS011;3009;43.224;27.976;2024-02-28T13:24:13;16.63;;;6.70;;
5965;SDS011;3009;43.224;27.976;2024-02-28T13:26:43;12.10;;;5.10;;
5965;SDS011;3009;43.224;27.976;2024-02-28T13:29:12;15.47;;;6.70;;
5965;SDS011;3009;43.224;27.976;2024-02-28T13:31:40;14.53;;;6.30;;
5965;SDS011;3009;43.224;27.976;2024-02-28T13:34:10;10.70;;;5.43;;
5965;SDS011;3009;43.224;27.976;2024-02-28T13:36:40;26.10;;;6.10;;
5965;SDS011;3009;43.224;27.976;2024-02-28T13:39:10;12.47;;;5.70;;
5965;SDS011;3009;43.224;27.976;2024-02-28T13:41:39;20.47;;;7.10;;
5965;SDS011;3009;43.224;27.976;2024-02-28T13:44:07;20.03;;;7.00;;
5965;SDS011;3009;43.224;27.976;2024-02-28T13:46:36;10.73;;;7.20;;
5965;SDS011;3009;43.224;27.976;2024-02-28T13:49:07;22.30;;;8.73;;
5965;SDS011;3009;43.224;27.976;2024-02-28T13:51:36;33.43;;;13.63;;
5965;SDS011;3009;43.224;27.976;2024-02-28T13:54:09;24.30;;;9.37;;
5965;SDS011;3009;43.224;27.976;2024-02-28T13:56:38;17.10;;;8.10;;
5965;SDS011;3009;43.224;27.976;2024-02-28T13:59:07;16.40;;;7.00;;
5965;SDS011;3009;43.224;27.976;2024-02-28T14:01:36;21.03;;;8.23;;
5965;SDS011;3009;43.224;27.976;2024-02-28T14:04:05;16.97;;;7.20;;
5965;SDS011;3009;43.224;27.976;2024-02-28T14:06:34;14.73;;;7.30;;
5965;SDS011;3009;43.224;27.976;2024-02-28T14:09:02;16.60;;;7.20;;
5965;SDS011;3009;43.224;27.976;2024-02-28T14:11:33;16.53;;;6.90;;
5965;SDS011;3009;43.224;27.976;2024-02-28T14:14:01;13.13;;;6.50;;
5965;SDS011;3009;43.224;27.976;2024-02-28T14:16:30;16.10;;;7.13;;
5965;SDS011;3009;43.224;27.976;2024-02-28T14:18:59;22.80;;;7.73;;
5965;SDS011;3009;43.224;27.976;2024-02-28T14:21:28;13.93;;;7.00;;
5965;SDS011;3009;43.224;27.976;2024-02-28T14:23:57;16.93;;;6.90;;
5965;SDS011;3009;43.224;27.976;2024-02-28T14:26:25;17.63;;;7.47;;
5965;SDS011;3009;43.224;27.976;2024-02-28T14:28:55;17.17;;;7.63;;
5965;SDS011;3009;43.224;27.976;2024-02-28T14:31:24;20.07;;;10.47;;
5965;SDS011;3009;43.224;27.976;2024-02-28T14:33:53;29.47;;;10.77;;
5965;SDS011;3009;43.224;27.976;2024-02-28T14:36:24;22.93;;;8.30;;
5965;SDS011;3009;43.224;27.976;2024-02-28T14:38:52;27.77;;;13.43;;
5965;SDS011;3009;43.224;27.976;2024-02-28T14:41:22;21.17;;;10.17;;
5965;SDS011;3009;43.224;27.976;2024-02-28T14:43:51;19.67;;;11.20;;
5965;SDS011;3009;43.224;27.976;2024-02-28T14:46:21;22.03;;;9.80;;
5965;SDS011;3009;43.224;27.976;2024-02-28T14:48:49;29.47;;;13.93;;
5965;SDS011;3009;43.224;27.976;2024-02-28T14:51:19;42.57;;;19.20;;
5965;SDS011;3009;43.224;27.976;2024-02-28T14:53:47;18.20;;;9.43;;
5965;SDS011;3009;43.224;27.976;2024-02-28T14:56:16;18.50;;;9.37;;
5965;SDS011;3009;43.224;27.976;2024-02-28T14:58:46;21.13;;;9.83;;
5965;SDS011;3009;43.224;27.976;2024-02-28T15:01:14;16.20;;;7.47;;
5965;SDS011;3009;43.224;27.976;2024-02-28T15:03:44;22.57;;;11.63;;
5965;SDS011;3009;43.224;27.976;2024-02-28T15:06:15;25.03;;;8.33;;